Time;durP1;ratioP1;P1;durP2;ratioP2;P2;SDS_P1;SDS_P2;PMS_P1;PMS_P2;Temp;Humidity;BMP_temperature;BMP_pressure;BME280_temperature;BME280_humidity;BME280_pressure;Samples;Min_cycle;Max_cycle;Signal;HPM_P1;HPM_P2
2022/01/28 00:01:33;;;;;;;0.93;0.80;;;5.40;99.90;;;;;;5036151;28;20756;-69
2022/01/28 00:04:21;;;;;;;3.60;1.23;;;5.40;99.90;;;;;;5036334;28;20426;-68
2022/01/28 00:07:08;;;;;;;0.70;0.50;;;5.40;99.90;;;;;;5035826;28;20469;-68
2022/01/28 00:09:55;;;;;;;10.80;1.40;;;5.40;99.90;;;;;;5034947;28;21008;-69
2022/01/28 00:13:02;;;;;;;1.20;1.00;;;5.40;99.90;;;;;;5036012;28;20452;-69
2022/01/28 00:19:13;;;;;;;1.67;0.53;;;5.40;99.90;;;;;;5035168;28;20928;-69
2022/01/28 00:37:58;;;;;;;1.90;0.83;;;5.40;99.90;;;;;;5014433;28;20434;-69
2022/01/28 00:40:35;;;;;;;8.33;1.33;;;5.40;99.90;;;;;;5014612;28;20437;-69
2022/01/28 00:43:22;;;;;;;2.23;1.30;;;5.30;99.90;;;;;;5015621;28;20431;-69
2022/01/28 00:46:10;;;;;;;1.17;0.90;;;5.30;99.90;;;;;;5015099;28;20437;-69
2022/01/28 00:48:57;;;;;;;1.73;1.63;;;5.30;99.90;;;;;;5014391;28;20426;-68
2022/01/28 00:51:44;;;;;;;1.90;0.93;;;5.20;99.90;;;;;;5014452;28;20452;-69
2022/01/28 00:54:32;;;;;;;0.93;0.70;;;5.20;99.90;;;;;;5014173;28;20433;-69
2022/01/28 00:57:19;;;;;;;1.03;0.60;;;5.20;99.90;;;;;;5014491;28;20473;-69
2022/01/28 01:00:08;;;;;;;2.67;0.93;;;5.20;99.90;;;;;;5013997;28;20437;-68
2022/01/28 01:02:55;;;;;;;0.40;0.40;;;5.20;99.90;;;;;;5014726;28;20478;-69
2022/01/28 01:05:42;;;;;;;0.50;0.50;;;5.20;99.90;;;;;;5014073;28;20848;-69
2022/01/28 01:08:29;;;;;;;0.60;0.60;;;5.20;99.90;;;;;;5015171;28;20446;-69
2022/01/28 01:11:20;;;;;;;2.47;0.50;;;5.10;99.90;;;;;;5014228;28;20453;-69
2022/01/28 01:14:07;;;;;;;9.20;1.90;;;5.00;99.90;;;;;;5013808;28;20426;-69
2022/01/28 01:17:08;;;;;;;1.37;1.27;;;4.90;99.90;;;;;;5014669;28;20469;-69
2022/01/28 01:20:09;;;;;;;1.70;0.70;;;5.00;99.90;;;;;;5029809;28;20420;-69
2022/01/28 01:23:06;;;;;;;2.40;1.23;;;4.80;99.90;;;;;;5054031;28;20501;-69
2022/01/28 01:25:59;;;;;;;1.80;1.00;;;4.80;99.90;;;;;;5053869;28;20412;-69
2022/01/28 01:28:48;;;;;;;18.30;2.10;;;4.90;99.90;;;;;;5052929;28;20485;-69
2022/01/28 01:31:36;;;;;;;3.93;1.30;;;5.00;99.90;;;;;;5053954;28;20435;-68
2022/01/28 01:34:23;;;;;;;4.50;1.30;;;5.00;99.90;;;;;;5053640;28;20929;-68
2022/01/28 01:37:12;;;;;;;1.13;0.77;;;5.00;99.90;;;;;;5053523;28;20435;-68
2022/01/28 01:39:59;;;;;;;1.67;1.57;;;5.00;99.90;;;;;;5053719;28;20427;-69
2022/01/28 01:42:53;;;;;;;6.00;1.30;;;4.90;99.90;;;;;;5053339;28;20428;-68
2022/01/28 01:46:06;;;;;;;0.50;0.50;;;4.80;99.90;;;;;;5053421;28;20416;-69
2022/01/28 01:52:02;;;;;;;6.30;1.43;;;4.60;99.90;;;;;;5053113;28;20814;-69
2022/01/28 01:54:50;;;;;;;4.83;1.27;;;4.50;99.90;;;;;;5053814;28;20446;-69
2022/01/28 01:57:38;;;;;;;0.70;0.70;;;4.50;99.90;;;;;;5053635;28;20855;-69
2022/01/28 02:00:25;;;;;;;1.47;0.67;;;4.60;99.90;;;;;;5053240;28;20994;-69
2022/01/28 02:03:13;;;;;;;2.93;1.23;;;4.60;99.90;;;;;;5053311;28;20424;-68
2022/01/28 02:06:01;;;;;;;15.97;4.00;;;4.70;99.90;;;;;;5053536;28;20425;-68
2022/01/28 02:08:48;;;;;;;3.70;1.03;;;4.70;99.90;;;;;;5053398;28;20417;-67
2022/01/28 02:11:35;;;;;;;1.17;0.60;;;4.70;99.90;;;;;;5053694;28;20440;-68
2022/01/28 02:14:22;;;;;;;6.83;1.73;;;4.70;99.90;;;;;;5053808;28;20427;-68
2022/01/28 02:17:09;;;;;;;0.93;0.83;;;4.70;99.90;;;;;;5053860;28;20444;-69
2022/01/28 02:19:58;;;;;;;1.80;0.60;;;4.60;99.90;;;;;;5044754;28;20432;-69
2022/01/28 02:22:46;;;;;;;1.77;0.73;;;4.50;99.90;;;;;;5032975;28;20440;-68
2022/01/28 02:25:34;;;;;;;8.03;1.10;;;4.40;99.90;;;;;;5032405;28;20414;-69
2022/01/28 02:28:22;;;;;;;3.30;1.20;;;4.50;99.90;;;;;;5032938;28;20536;-67
2022/01/28 02:31:09;;;;;;;3.90;1.73;;;4.50;99.90;;;;;;5033289;28;20463;-68
2022/01/28 02:33:57;;;;;;;0.40;0.40;;;4.50;99.90;;;;;;5033166;28;20417;-67
2022/01/28 02:36:44;;;;;;;3.03;1.50;;;4.60;99.90;;;;;;5032670;28;20480;-67
2022/01/28 02:39:33;;;;;;;5.63;2.33;;;4.70;99.90;;;;;;5032580;28;20852;-68
2022/01/28 02:42:29;;;;;;;0.70;0.50;;;4.70;99.90;;;;;;5033403;28;20432;-68
2022/01/28 02:45:31;;;;;;;3.50;0.70;;;4.80;99.90;;;;;;5039343;28;20908;-67
2022/01/28 02:48:22;;;;;;;3.90;1.27;;;4.80;99.90;;;;;;5032121;28;20445;-68
2022/01/28 02:51:14;;;;;;;41.27;2.17;;;4.90;99.90;;;;;;5032144;28;20998;-68
2022/01/28 02:54:12;;;;;;;0.50;0.50;;;4.90;99.90;;;;;;5032684;28;20470;-68
2022/01/28 02:57:04;;;;;;;3.20;1.13;;;4.90;99.90;;;;;;5032250;28;20471;-68
2022/01/28 02:59:51;;;;;;;0.50;0.50;;;4.90;99.90;;;;;;5032784;28;20424;-68
2022/01/28 03:02:38;;;;;;;13.87;2.20;;;4.90;99.90;;;;;;5036482;28;20421;-68
2022/01/28 03:05:32;;;;;;;4.33;1.60;;;4.90;99.90;;;;;;5036769;28;20425;-68
2022/01/28 03:08:22;;;;;;;9.83;0.90;;;4.90;99.90;;;;;;5035736;28;20847;-68
2022/01/28 03:11:31;;;;;;;0.60;0.50;;;4.90;99.90;;;;;;5035952;28;20519;-68
2022/01/28 03:14:34;;;;;;;16.13;2.00;;;4.90;99.90;;;;;;5037127;28;20566;-68
2022/01/28 03:17:49;;;;;;;2.30;1.70;;;4.90;99.90;;;;;;5036018;28;20469;-68
2022/01/28 03:20:39;;;;;;;7.63;1.43;;;4.90;99.90;;;;;;5049812;28;20801;-68
2022/01/28 03:23:27;;;;;;;0.70;0.70;;;5.10;99.90;;;;;;5064748;28;20435;-69
2022/01/28 03:26:14;;;;;;;1.53;1.43;;;5.00;99.90;;;;;;5071337;28;20478;-69
2022/01/28 03:29:01;;;;;;;1.87;1.10;;;5.00;99.90;;;;;;5070973;28;20420;-68
2022/01/28 03:31:50;;;;;;;0.60;0.60;;;5.00;99.90;;;;;;5070118;28;20458;-69
2022/01/28 03:34:36;;;;;;;9.80;1.07;;;5.10;99.90;;;;;;5067247;28;20503;-68
2022/01/28 03:37:23;;;;;;;0.97;0.97;;;5.10;99.90;;;;;;5065452;28;20463;-68
2022/01/28 03:40:11;;;;;;;6.13;1.23;;;5.10;99.90;;;;;;5067028;28;20455;-68
2022/01/28 03:42:58;;;;;;;0.50;0.50;;;5.10;99.90;;;;;;5058687;28;20428;-68
2022/01/28 03:45:45;;;;;;;4.73;1.40;;;5.20;99.90;;;;;;5059100;28;20454;-68
2022/01/28 03:48:33;;;;;;;0.87;0.67;;;5.20;99.90;;;;;;5061178;28;20427;-68
2022/01/28 03:51:21;;;;;;;2.00;0.77;;;5.30;99.90;;;;;;5057711;28;20428;-68
2022/01/28 03:54:08;;;;;;;4.57;1.67;;;5.20;99.90;;;;;;5057513;28;20431;-68
2022/01/28 03:56:54;;;;;;;0.40;0.40;;;5.30;99.90;;;;;;5055554;28;20517;-68
2022/01/28 03:59:41;;;;;;;1.40;0.80;;;5.30;99.90;;;;;;5055566;28;20428;-68
2022/01/28 04:02:32;;;;;;;0.40;0.40;;;5.30;99.90;;;;;;5055641;28;20498;-68
2022/01/28 04:11:31;;;;;;;0.83;0.60;;;5.30;99.90;;;;;;5055309;28;20421;-68
2022/01/28 04:14:31;;;;;;;4.30;0.80;;;5.40;99.90;;;;;;5055412;28;20431;-68
2022/01/28 04:17:21;;;;;;;0.57;0.57;;;5.30;99.90;;;;;;5056176;28;20631;-69
2022/01/28 04:20:09;;;;;;;0.93;0.90;;;5.20;99.90;;;;;;5046378;28;20471;-68
2022/01/28 04:22:57;;;;;;;16.47;2.00;;;5.30;99.90;;;;;;5036346;28;20436;-68
2022/01/28 04:25:44;;;;;;;0.97;0.93;;;5.40;99.90;;;;;;5035162;28;20413;-68
2022/01/28 04:28:31;;;;;;;2.90;2.60;;;5.40;99.90;;;;;;5035663;28;20460;-68
2022/01/28 04:31:18;;;;;;;1.33;0.50;;;5.40;99.90;;;;;;5035127;28;20421;-68
2022/01/28 04:34:05;;;;;;;7.27;0.67;;;5.40;99.90;;;;;;5035108;28;20421;-68
2022/01/28 04:37:01;;;;;;;0.93;0.93;;;5.30;99.90;;;;;;5034704;28;20547;-69
2022/01/28 04:39:53;;;;;;;5.10;1.27;;;5.30;99.90;;;;;;5035693;28;20430;-68
2022/01/28 04:42:56;;;;;;;1.60;1.50;;;5.30;99.90;;;;;;5037712;28;20800;-68
2022/01/28 04:45:50;;;;;;;2.10;1.13;;;5.30;99.90;;;;;;5056962;28;20928;-69
2022/01/28 04:48:43;;;;;;;2.27;0.80;;;5.20;99.90;;;;;;5056511;28;20448;-68
2022/01/28 04:51:47;;;;;;;0.83;0.67;;;5.20;99.90;;;;;;5055804;28;20941;-68
2022/01/28 04:54:52;;;;;;;0.40;0.40;;;5.20;99.90;;;;;;5056558;28;20424;-69
2022/01/28 04:57:54;;;;;;;2.93;1.00;;;5.20;99.90;;;;;;5055746;28;20460;-68
2022/01/28 05:00:52;;;;;;;0.70;0.50;;;5.10;99.90;;;;;;5055574;28;20424;-68
2022/01/28 05:03:52;;;;;;;1.53;0.63;;;5.00;99.90;;;;;;5056121;28;20793;-67
2022/01/28 05:07:06;;;;;;;6.30;1.00;;;5.00;99.90;;;;;;5054983;28;20521;-70
2022/01/28 05:13:22;;;;;;;0.60;0.60;;;4.90;99.90;;;;;;5038051;28;20470;-68
2022/01/28 05:16:39;;;;;;;3.53;1.33;;;5.00;99.90;;;;;;5055794;28;20839;-69
2022/01/28 05:25:51;;;;;;;12.03;1.60;;;4.90;99.90;;;;;;5033329;28;20424;-70
2022/01/28 05:28:41;;;;;;;0.83;0.83;;;5.00;99.90;;;;;;5034456;28;20531;-68
2022/01/28 05:31:28;;;;;;;2.30;1.57;;;4.90;99.90;;;;;;5035028;28;20429;-68
2022/01/28 05:34:15;;;;;;;0.83;0.60;;;4.90;99.90;;;;;;5035276;28;20473;-70
2022/01/28 05:37:01;;;;;;;0.50;0.50;;;5.00;99.90;;;;;;5034410;28;20535;-69
2022/01/28 05:39:48;;;;;;;0.43;0.43;;;5.00;99.90;;;;;;5034343;28;20425;-69
2022/01/28 05:42:35;;;;;;;1.13;0.93;;;5.00;99.90;;;;;;5033868;28;20487;-70
2022/01/28 05:45:23;;;;;;;4.40;0.70;;;5.10;99.90;;;;;;5033749;28;20499;-69
2022/01/28 05:48:11;;;;;;;2.20;1.10;;;5.00;99.90;;;;;;5033941;28;20437;-69
2022/01/28 05:50:58;;;;;;;4.37;0.80;;;5.10;99.90;;;;;;5034078;28;20432;-70
2022/01/28 05:53:45;;;;;;;0.60;0.60;;;5.10;99.90;;;;;;5033844;28;20806;-70
2022/01/28 05:56:32;;;;;;;2.00;1.23;;;5.20;99.90;;;;;;5032686;28;20468;-69
2022/01/28 05:59:19;;;;;;;1.37;1.17;;;5.30;99.90;;;;;;5033290;28;20435;-69
2022/01/28 06:02:07;;;;;;;1.87;1.23;;;5.20;99.90;;;;;;5033500;28;20425;-69
2022/01/28 06:04:54;;;;;;;0.90;0.47;;;5.20;99.90;;;;;;5033213;28;20421;-69
2022/01/28 06:07:42;;;;;;;4.03;1.23;;;5.20;99.90;;;;;;5033036;28;20449;-70
2022/01/28 06:10:29;;;;;;;2.63;1.17;;;5.30;99.90;;;;;;5033664;28;20433;-69
2022/01/28 06:13:16;;;;;;;10.80;1.33;;;5.20;99.90;;;;;;5033342;28;20425;-70
2022/01/28 06:16:03;;;;;;;1.77;0.77;;;5.20;99.90;;;;;;5033071;28;20824;-71
2022/01/28 06:18:51;;;;;;;9.70;2.00;;;5.30;99.90;;;;;;5033028;28;20488;-69
2022/01/28 06:21:38;;;;;;;0.40;0.40;;;5.30;99.90;;;;;;5014926;28;20414;-69
2022/01/28 06:24:25;;;;;;;1.47;1.23;;;5.30;99.90;;;;;;5014658;28;20426;-71
2022/01/28 06:27:12;;;;;;;0.90;0.80;;;5.30;99.90;;;;;;5014985;28;20867;-69
2022/01/28 06:29:59;;;;;;;1.20;0.60;;;5.20;99.90;;;;;;5015272;28;20435;-69
2022/01/28 06:32:47;;;;;;;2.43;0.77;;;5.20;99.90;;;;;;5013928;28;20454;-68
2022/01/28 06:35:35;;;;;;;17.93;1.37;;;5.20;99.90;;;;;;5014920;28;20438;-68
2022/01/28 06:38:22;;;;;;;2.93;0.80;;;5.20;99.90;;;;;;5014288;28;20793;-70
2022/01/28 06:41:09;;;;;;;2.30;0.63;;;5.20;99.90;;;;;;5014463;28;20480;-69
2022/01/28 06:43:56;;;;;;;1.60;1.00;;;5.20;99.90;;;;;;5014591;28;20466;-69
2022/01/28 06:46:43;;;;;;;2.70;1.37;;;5.20;99.90;;;;;;5015235;28;20452;-69
2022/01/28 06:49:31;;;;;;;0.90;0.83;;;5.20;99.90;;;;;;5014965;28;20941;-69
2022/01/28 06:52:19;;;;;;;3.63;1.17;;;5.20;99.90;;;;;;5015164;28;20425;-69
2022/01/28 06:55:08;;;;;;;0.40;0.40;;;5.30;99.90;;;;;;5014382;28;20517;-69
2022/01/28 06:57:56;;;;;;;1.30;1.23;;;5.20;99.90;;;;;;5013792;28;20470;-68
2022/01/28 07:00:43;;;;;;;0.40;0.40;;;5.20;99.90;;;;;;5014375;28;20466;-69
2022/01/28 07:03:29;;;;;;;4.30;2.30;;;5.20;99.90;;;;;;5015261;28;20422;-69
2022/01/28 07:06:16;;;;;;;4.17;1.40;;;5.10;99.90;;;;;;5014631;28;20446;-69
2022/01/28 07:09:06;;;;;;;0.83;0.77;;;5.20;99.90;;;;;;5014867;28;20418;-68
2022/01/28 07:11:53;;;;;;;1.57;0.93;;;5.20;99.90;;;;;;5024963;28;20953;-68
2022/01/28 07:14:40;;;;;;;0.50;0.50;;;5.20;99.90;;;;;;5031056;28;20425;-69
2022/01/28 07:17:27;;;;;;;0.77;0.77;;;5.20;99.90;;;;;;5032140;28;20487;-69
2022/01/28 07:20:14;;;;;;;0.57;0.57;;;5.10;99.90;;;;;;5051272;28;20429;-69
2022/01/28 07:23:01;;;;;;;0.40;0.40;;;5.10;99.90;;;;;;5053822;28;20471;-68
2022/01/28 07:25:49;;;;;;;0.50;0.50;;;5.10;99.90;;;;;;5054073;28;20478;-69
2022/01/28 07:28:38;;;;;;;2.70;1.53;;;5.10;99.90;;;;;;5045163;28;20429;-69
2022/01/28 07:31:25;;;;;;;11.83;1.50;;;5.10;99.90;;;;;;5041772;28;20434;-68
2022/01/28 07:34:12;;;;;;;7.33;0.87;;;5.10;99.90;;;;;;5045886;28;20436;-69
2022/01/28 07:36:59;;;;;;;3.90;1.23;;;5.10;99.90;;;;;;5051300;28;20488;-68
2022/01/28 07:39:46;;;;;;;2.10;0.70;;;5.10;99.90;;;;;;5045416;28;20460;-69
2022/01/28 07:42:37;;;;;;;1.60;0.80;;;5.00;99.90;;;;;;5036622;28;20429;-68
2022/01/28 07:45:25;;;;;;;3.73;1.40;;;5.00;99.90;;;;;;5047070;28;20459;-68
2022/01/28 07:48:12;;;;;;;1.17;1.17;;;4.90;99.90;;;;;;5053431;28;20451;-69
2022/01/28 07:50:59;;;;;;;3.03;1.53;;;5.00;99.90;;;;;;5054371;28;20429;-68
2022/01/28 07:53:46;;;;;;;2.87;0.70;;;4.90;99.90;;;;;;5054036;28;20437;-69
2022/01/28 07:56:33;;;;;;;0.50;0.50;;;4.90;99.90;;;;;;5051403;28;20451;-68
2022/01/28 07:59:22;;;;;;;9.60;1.43;;;4.90;99.90;;;;;;5072165;28;20428;-68
2022/01/28 08:02:09;;;;;;;0.40;0.40;;;4.90;99.90;;;;;;5071759;28;20444;-69
2022/01/28 08:04:56;;;;;;;0.40;0.40;;;4.90;99.90;;;;;;5060900;28;20450;-69
2022/01/28 08:07:44;;;;;;;1.93;1.80;;;4.90;99.90;;;;;;5050365;28;20629;-70
2022/01/28 08:10:32;;;;;;;4.20;1.00;;;4.80;99.90;;;;;;5030274;28;20549;-69
2022/01/28 08:13:19;;;;;;;0.40;0.40;;;4.80;99.90;;;;;;5045053;28;20436;-68
2022/01/28 08:16:07;;;;;;;0.70;0.70;;;4.80;99.90;;;;;;5050451;28;20464;-69
2022/01/28 08:18:54;;;;;;;2.50;0.90;;;4.80;99.90;;;;;;5040205;28;20421;-70
2022/01/28 08:21:41;;;;;;;0.40;0.40;;;4.80;99.90;;;;;;5038772;28;20421;-69
2022/01/28 08:24:29;;;;;;;2.83;0.70;;;4.80;99.90;;;;;;5035963;28;20845;-69
2022/01/28 08:27:16;;;;;;;7.70;1.37;;;4.80;99.90;;;;;;5040978;28;20441;-69
2022/01/28 08:30:04;;;;;;;1.17;1.10;;;4.90;99.90;;;;;;5047886;28;20457;-69
2022/01/28 08:32:53;;;;;;;5.47;1.30;;;4.90;99.90;;;;;;5046276;28;20436;-68
2022/01/28 08:35:41;;;;;;;3.03;1.23;;;4.90;99.90;;;;;;5044453;28;20448;-70
2022/01/28 08:38:31;;;;;;;0.50;0.50;;;4.90;99.90;;;;;;5047110;28;20503;-68
2022/01/28 08:41:18;;;;;;;1.70;0.67;;;4.90;99.90;;;;;;5041082;28;20443;-68
2022/01/28 08:44:06;;;;;;;10.30;1.53;;;4.80;99.90;;;;;;5046057;28;20445;-68
2022/01/28 08:46:53;;;;;;;1.57;1.10;;;4.70;99.90;;;;;;5043070;28;20540;-69
2022/01/28 08:49:42;;;;;;;0.60;0.60;;;4.70;99.90;;;;;;5036826;28;20977;-69
2022/01/28 08:52:29;;;;;;;5.60;1.03;;;4.70;99.90;;;;;;5037813;28;20508;-68
2022/01/28 08:55:16;;;;;;;3.17;1.07;;;4.70;99.90;;;;;;5036751;28;20941;-68
2022/01/28 08:58:03;;;;;;;5.10;1.27;;;4.80;99.90;;;;;;5037026;28;20469;-69
2022/01/28 09:00:51;;;;;;;2.40;0.67;;;4.80;99.90;;;;;;5038648;28;20461;-69
2022/01/28 09:03:38;;;;;;;1.10;0.83;;;4.90;99.90;;;;;;5038124;28;20438;-68
2022/01/28 09:06:26;;;;;;;7.33;2.70;;;4.80;99.90;;;;;;5035315;28;20444;-68
2022/01/28 09:09:14;;;;;;;0.40;0.40;;;4.90;99.90;;;;;;5030233;28;20449;-68
2022/01/28 09:12:19;;;;;;;4.83;1.03;;;4.90;99.90;;;;;;5034636;28;20428;-68
2022/01/28 09:15:06;;;;;;;0.53;0.53;;;5.00;99.90;;;;;;5035497;28;20441;-68
2022/01/28 09:17:54;;;;;;;2.00;1.23;;;5.00;99.90;;;;;;5036585;28;20468;-68
2022/01/28 09:20:42;;;;;;;2.80;1.27;;;5.00;99.90;;;;;;5033926;28;20437;-68
2022/01/28 09:23:33;;;;;;;0.40;0.40;;;5.00;99.90;;;;;;5016694;28;20481;-68
2022/01/28 09:26:20;;;;;;;1.43;0.60;;;5.10;99.90;;;;;;5054782;28;20428;-69
2022/01/28 09:29:07;;;;;;;4.23;0.60;;;5.00;99.90;;;;;;5038134;28;20429;-69
2022/01/28 09:31:54;;;;;;;7.17;1.83;;;5.10;99.90;;;;;;5029597;28;20426;-68
2022/01/28 09:34:41;;;;;;;1.23;1.03;;;5.10;99.90;;;;;;5042827;28;20416;-68
2022/01/28 09:37:28;;;;;;;1.10;1.00;;;5.10;99.90;;;;;;5059470;28;20479;-68
2022/01/28 09:40:16;;;;;;;5.30;1.27;;;5.20;99.90;;;;;;5038564;28;20433;-72
2022/01/28 09:43:05;;;;;;;2.67;1.13;;;5.30;99.90;;;;;;5038781;28;20428;-69
2022/01/28 09:45:52;;;;;;;1.53;1.43;;;5.30;99.90;;;;;;5042544;28;20436;-69
2022/01/28 09:48:40;;;;;;;6.83;2.30;;;5.50;99.90;;;;;;5043514;28;20440;-69
2022/01/28 09:51:28;;;;;;;6.13;1.53;;;5.50;99.90;;;;;;5025508;28;20439;-69
2022/01/28 09:54:16;;;;;;;4.40;1.40;;;5.60;99.90;;;;;;5046433;28;20456;-68
2022/01/28 09:57:07;;;;;;;2.87;1.00;;;5.60;99.90;;;;;;5049242;28;20449;-69
2022/01/28 09:59:54;;;;;;;1.13;0.73;;;5.60;99.90;;;;;;5049418;28;20417;-69
2022/01/28 10:02:48;;;;;;;6.73;1.00;;;5.50;99.90;;;;;;5048375;28;20925;-68
2022/01/28 10:05:37;;;;;;;1.53;0.50;;;5.60;99.90;;;;;;5031414;28;20918;-68
2022/01/28 10:08:26;;;;;;;0.47;0.47;;;5.50;99.90;;;;;;5024314;28;20450;-69
2022/01/28 10:11:16;;;;;;;6.30;1.93;;;5.70;99.90;;;;;;5039160;28;20468;-69
2022/01/28 10:14:10;;;;;;;1.60;0.90;;;5.80;99.90;;;;;;5021708;28;20421;-69
2022/01/28 10:16:59;;;;;;;2.73;1.10;;;5.70;99.90;;;;;;5020960;28;20442;-69
2022/01/28 10:19:46;;;;;;;0.90;0.47;;;5.70;99.90;;;;;;5020605;28;20994;-69
2022/01/28 10:22:33;;;;;;;2.37;0.90;;;5.70;99.90;;;;;;5022605;28;20435;-69
2022/01/28 10:25:25;;;;;;;3.53;1.23;;;5.70;99.90;;;;;;5020791;28;20433;-69
2022/01/28 10:28:13;;;;;;;6.00;1.00;;;5.50;99.90;;;;;;5023195;28;20466;-68
2022/01/28 10:31:04;;;;;;;2.63;0.80;;;5.50;99.90;;;;;;5020896;28;20427;-69
2022/01/28 10:33:52;;;;;;;1.00;0.90;;;5.40;99.90;;;;;;5026262;28;20437;-69
2022/01/28 10:36:39;;;;;;;3.83;1.33;;;5.30;99.90;;;;;;5026066;28;20505;-68
2022/01/28 10:39:26;;;;;;;0.87;0.67;;;5.40;99.90;;;;;;5025198;28;20481;-67
2022/01/28 10:42:15;;;;;;;0.70;0.70;;;5.50;99.90;;;;;;5029415;28;20429;-68
2022/01/28 10:45:10;;;;;;;7.70;1.53;;;5.50;99.90;;;;;;5054558;28;20429;-67
2022/01/28 10:48:00;;;;;;;2.13;0.60;;;5.50;99.90;;;;;;5043224;28;20444;-67
2022/01/28 10:50:47;;;;;;;2.57;0.50;;;5.60;99.90;;;;;;5049319;28;20499;-68
2022/01/28 10:53:34;;;;;;;3.20;1.13;;;5.60;99.90;;;;;;5067991;28;20432;-68
2022/01/28 10:56:21;;;;;;;4.90;0.90;;;5.70;99.90;;;;;;5069309;28;20439;-68
2022/01/28 10:59:08;;;;;;;3.10;1.13;;;5.80;99.90;;;;;;5069144;28;20728;-67
2022/01/28 11:01:55;;;;;;;4.40;0.80;;;5.90;99.90;;;;;;5062569;28;20447;-70
2022/01/28 11:04:46;;;;;;;1.53;1.00;;;5.90;99.90;;;;;;5057001;28;20998;-69
2022/01/28 11:07:33;;;;;;;12.83;2.57;;;6.00;99.90;;;;;;5055543;28;20463;-69
2022/01/28 11:10:20;;;;;;;2.10;0.73;;;6.00;99.90;;;;;;5059272;28;20437;-69
2022/01/28 11:13:07;;;;;;;1.50;0.97;;;6.10;99.90;;;;;;5052449;28;20433;-70
2022/01/28 11:15:55;;;;;;;1.23;0.80;;;6.20;99.90;;;;;;5043638;28;20458;-69
2022/01/28 11:18:42;;;;;;;7.03;0.70;;;6.50;99.90;;;;;;5046974;28;20487;-69
2022/01/28 11:21:38;;;;;;;0.60;0.47;;;6.60;99.90;;;;;;5039670;28;20433;-68
2022/01/28 11:24:42;;;;;;;2.77;0.70;;;6.70;99.90;;;;;;5043370;28;20425;-72
2022/01/28 11:27:31;;;;;;;0.40;0.40;;;6.50;99.90;;;;;;5049915;28;20441;-67
2022/01/28 11:30:22;;;;;;;4.43;1.53;;;6.40;99.90;;;;;;5056065;28;20455;-68
2022/01/28 11:33:11;;;;;;;0.77;0.60;;;6.20;99.90;;;;;;5070640;28;20442;-67
2022/01/28 11:36:03;;;;;;;11.13;1.43;;;6.10;99.90;;;;;;5044524;28;20449;-69
2022/01/28 11:38:51;;;;;;;5.60;1.13;;;6.00;99.90;;;;;;5051460;28;20472;-68
2022/01/28 11:42:03;;;;;;;0.50;0.50;;;6.10;99.90;;;;;;5071514;28;20454;-68
2022/01/28 11:44:55;;;;;;;2.40;0.90;;;6.10;99.90;;;;;;5062894;28;20429;-69
2022/01/28 11:47:54;;;;;;;0.50;0.50;;;6.30;99.90;;;;;;5049227;28;20441;-68
2022/01/28 11:50:50;;;;;;;8.70;1.53;;;6.50;99.90;;;;;;5048035;28;20441;-70
2022/01/28 11:53:55;;;;;;;0.83;0.70;;;6.60;99.90;;;;;;5049320;28;20437;-69
2022/01/28 11:57:14;;;;;;;5.83;1.07;;;6.70;99.90;;;;;;5043190;28;20457;-68
2022/01/28 12:00:21;;;;;;;2.53;0.67;;;6.80;99.90;;;;;;5040895;28;20433;-69
2022/01/28 12:03:19;;;;;;;1.57;0.83;;;6.80;99.90;;;;;;5028700;28;20425;-71
2022/01/28 12:06:09;;;;;;;0.40;0.40;;;7.00;99.90;;;;;;5029578;28;20425;-68
2022/01/28 12:08:57;;;;;;;1.73;0.50;;;7.10;99.90;;;;;;5029802;28;20417;-70
2022/01/28 12:11:44;;;;;;;0.70;0.60;;;7.20;99.90;;;;;;5045043;28;20444;-68
2022/01/28 12:14:58;;;;;;;0.80;0.50;;;7.00;99.90;;;;;;5032754;28;20436;-68
2022/01/28 12:17:47;;;;;;;5.43;1.47;;;6.90;99.90;;;;;;5031711;28;20519;-69
2022/01/28 12:20:39;;;;;;;2.30;0.73;;;6.90;99.90;;;;;;5040291;28;20450;-68
2022/01/28 12:23:28;;;;;;;0.50;0.50;;;6.70;99.90;;;;;;5059392;28;20420;-68
2022/01/28 12:26:17;;;;;;;0.40;0.40;;;6.80;99.90;;;;;;5046918;28;20437;-68
2022/01/28 12:29:05;;;;;;;0.97;0.97;;;6.60;99.90;;;;;;5046537;28;20451;-68
2022/01/28 12:31:58;;;;;;;4.40;0.90;;;6.70;99.90;;;;;;5037595;28;20433;-69
2022/01/28 12:34:46;;;;;;;1.10;0.67;;;6.90;99.90;;;;;;5043341;28;20437;-68
2022/01/28 12:37:42;;;;;;;1.43;1.03;;;6.90;99.90;;;;;;5044183;28;20487;-68
2022/01/28 12:40:34;;;;;;;5.73;1.20;;;7.00;99.90;;;;;;5042378;28;20425;-68
2022/01/28 12:43:23;;;;;;;0.40;0.40;;;7.00;99.90;;;;;;5042006;28;20981;-68
2022/01/28 12:46:14;;;;;;;1.43;1.27;;;7.10;99.90;;;;;;5042117;28;20421;-68
2022/01/28 12:49:02;;;;;;;1.90;1.33;;;7.30;99.90;;;;;;5044852;28;20421;-68
2022/01/28 12:51:53;;;;;;;0.77;0.77;;;7.30;99.90;;;;;;5047521;28;20475;-68
2022/01/28 12:54:42;;;;;;;0.60;0.60;;;7.40;99.90;;;;;;5042963;28;20480;-68
2022/01/28 12:57:29;;;;;;;5.67;1.07;;;7.50;99.90;;;;;;5038878;28;21026;-68
2022/01/28 13:00:17;;;;;;;0.60;0.60;;;7.60;99.90;;;;;;5042730;28;20421;-68
2022/01/28 13:03:04;;;;;;;0.90;0.50;;;7.40;99.90;;;;;;5046382;28;20425;-68
2022/01/28 13:05:57;;;;;;;1.70;0.50;;;7.40;99.90;;;;;;5044709;28;20433;-68
2022/01/28 13:08:44;;;;;;;1.10;0.50;;;7.30;99.90;;;;;;5042929;28;20437;-68
2022/01/28 13:11:31;;;;;;;4.40;0.70;;;7.30;99.90;;;;;;5034645;28;20443;-68
2022/01/28 13:14:21;;;;;;;4.03;1.23;;;7.30;99.90;;;;;;5034152;28;20498;-68
2022/01/28 13:17:08;;;;;;;7.20;1.90;;;7.20;99.90;;;;;;5033407;28;20448;-68
2022/01/28 13:19:57;;;;;;;5.63;0.70;;;7.00;99.90;;;;;;5041869;28;20455;-69
2022/01/28 13:22:50;;;;;;;3.20;0.87;;;6.70;99.90;;;;;;5055573;28;20431;-68
2022/01/28 13:25:38;;;;;;;0.80;0.60;;;6.60;99.90;;;;;;5054483;28;20841;-68
2022/01/28 13:28:26;;;;;;;6.13;1.10;;;6.60;99.90;;;;;;5052253;28;20440;-68
2022/01/28 13:31:24;;;;;;;10.10;2.97;;;6.60;99.90;;;;;;5054431;28;20508;-69
2022/01/28 13:34:12;;;;;;;1.30;0.80;;;6.60;99.90;;;;;;5053974;28;20688;-67
2022/01/28 13:36:59;;;;;;;0.97;0.87;;;6.60;99.90;;;;;;5053598;28;20964;-69
2022/01/28 13:39:47;;;;;;;0.63;0.63;;;6.70;99.90;;;;;;5054789;28;20459;-68
2022/01/28 13:42:35;;;;;;;1.47;0.70;;;6.90;99.90;;;;;;5055793;28;20427;-68
2022/01/28 13:45:30;;;;;;;0.50;0.50;;;6.80;99.90;;;;;;5054473;28;20497;-68
2022/01/28 13:48:20;;;;;;;1.47;0.70;;;6.80;99.90;;;;;;5054534;28;20940;-68
2022/01/28 13:51:09;;;;;;;0.50;0.50;;;6.80;99.90;;;;;;5053929;28;20436;-68
2022/01/28 13:54:18;;;;;;;1.73;0.70;;;7.00;99.90;;;;;;5053106;28;20427;-68
2022/01/28 13:57:08;;;;;;;1.30;0.53;;;7.10;99.90;;;;;;5013468;28;20835;-68
2022/01/28 14:00:02;;;;;;;3.83;1.27;;;7.20;99.90;;;;;;5031131;28;20473;-66
2022/01/28 14:02:49;;;;;;;0.77;0.70;;;7.30;99.90;;;;;;5033411;28;20444;-72
2022/01/28 14:05:50;;;;;;;2.43;0.93;;;7.50;99.90;;;;;;5034057;28;20436;-69
2022/01/28 14:08:39;;;;;;;0.47;0.47;;;7.80;99.90;;;;;;5034740;28;20417;-68
2022/01/28 14:11:30;;;;;;;1.33;0.53;;;7.90;99.90;;;;;;5035566;28;20529;-67
2022/01/28 14:14:23;;;;;;;0.50;0.50;;;7.90;99.90;;;;;;5034852;28;20417;-68
2022/01/28 14:17:11;;;;;;;0.50;0.50;;;7.80;99.90;;;;;;5035914;28;20469;-68
2022/01/28 14:19:58;;;;;;;0.40;0.40;;;7.80;99.90;;;;;;5043415;28;20468;-68
2022/01/28 14:22:44;;;;;;;0.80;0.80;;;7.80;99.90;;;;;;5053405;28;20445;-68
2022/01/28 14:25:31;;;;;;;0.87;0.80;;;7.90;99.90;;;;;;5054165;28;20428;-67
2022/01/28 14:28:37;;;;;;;0.40;0.40;;;7.60;99.90;;;;;;5055372;28;20452;-69
2022/01/28 14:31:27;;;;;;;0.47;0.47;;;7.10;99.90;;;;;;5055248;28;20439;-68
2022/01/28 14:34:14;;;;;;;0.40;0.40;;;7.00;99.90;;;;;;5056319;28;20487;-68
2022/01/28 14:37:02;;;;;;;2.50;1.00;;;6.60;99.90;;;;;;5054076;28;20459;-68
2022/01/28 14:39:49;;;;;;;0.40;0.40;;;6.40;99.90;;;;;;5053557;28;20468;-69
2022/01/28 14:42:37;;;;;;;0.90;0.57;;;6.40;99.90;;;;;;5052722;28;20448;-69
2022/01/28 14:45:24;;;;;;;0.40;0.40;;;6.20;99.90;;;;;;5053167;28;20424;-69
2022/01/28 14:48:12;;;;;;;0.40;0.40;;;6.20;99.90;;;;;;5053550;28;20490;-68
2022/01/28 14:50:59;;;;;;;1.50;0.70;;;6.00;99.90;;;;;;5053510;28;20420;-68
2022/01/28 14:53:46;;;;;;;5.50;1.10;;;5.90;99.90;;;;;;5052822;28;20421;-69
2022/01/28 14:56:33;;;;;;;0.70;0.70;;;5.90;99.90;;;;;;5053990;28;20440;-68
2022/01/28 14:59:20;;;;;;;0.40;0.40;;;5.80;99.90;;;;;;5063868;28;20492;-69
2022/01/28 15:02:09;;;;;;;0.90;0.90;;;5.80;99.90;;;;;;5064663;28;20788;-69
2022/01/28 15:04:59;;;;;;;1.47;0.77;;;5.80;99.90;;;;;;5064106;28;20974;-69
2022/01/28 15:07:47;;;;;;;0.70;0.70;;;5.80;99.90;;;;;;5062576;28;20525;-69
2022/01/28 15:10:34;;;;;;;11.73;1.77;;;5.70;99.90;;;;;;5058420;28;20457;-69
2022/01/28 15:13:22;;;;;;;3.50;1.00;;;5.70;99.90;;;;;;5066257;28;20800;-68
2022/01/28 15:16:09;;;;;;;0.70;0.70;;;5.50;99.90;;;;;;5058687;28;20538;-69
2022/01/28 15:18:56;;;;;;;0.50;0.50;;;5.50;99.90;;;;;;5060966;28;20460;-69
2022/01/28 15:21:49;;;;;;;5.47;0.80;;;5.50;99.90;;;;;;5052392;28;20436;-68
2022/01/28 15:24:36;;;;;;;0.97;0.43;;;5.40;99.90;;;;;;5054809;28;20428;-69
2022/01/28 15:27:25;;;;;;;0.93;0.93;;;5.30;99.90;;;;;;5055870;28;20456;-69
2022/01/28 15:30:27;;;;;;;0.50;0.50;;;5.20;99.90;;;;;;5054385;28;20495;-69
2022/01/28 15:36:19;;;;;;;0.40;0.40;;;5.10;99.90;;;;;;5075222;28;20431;-69